createdAt,value
2022-11-09T00:01:04.355Z,16.27
2022-11-09T00:03:32.046Z,14.70
2022-11-09T00:06:00.390Z,10.95
2022-11-09T00:08:28.621Z,12.90
2022-11-09T00:11:01.879Z,13.10
2022-11-09T00:13:29.366Z,18.35
2022-11-09T00:16:00.320Z,15.82
2022-11-09T00:18:28.517Z,19.27
2022-11-09T00:20:56.415Z,15.00
2022-11-09T00:23:23.825Z,15.13
2022-11-09T00:25:51.203Z,15.02
2022-11-09T00:28:18.698Z,16.98
2022-11-09T00:31:02.640Z,16.33
2022-11-09T00:33:31.371Z,12.63
2022-11-09T00:35:59.043Z,18.50
2022-11-09T00:38:26.408Z,18.75
2022-11-09T00:40:53.931Z,14.93
2022-11-09T00:43:21.717Z,12.73
2022-11-09T00:45:49.851Z,17.70
2022-11-09T00:48:17.487Z,15.00
2022-11-09T00:56:57.257Z,15.90
2022-11-09T00:59:24.904Z,13.65
2022-11-09T01:01:52.359Z,11.18
2022-11-09T01:04:19.846Z,15.10
2022-11-09T01:06:47.367Z,14.20
2022-11-09T01:09:14.780Z,13.75
2022-11-09T01:11:42.262Z,13.20
2022-11-09T01:14:10.583Z,14.07
2022-11-09T01:16:39.094Z,14.75
2022-11-09T01:19:06.955Z,16.02
2022-11-09T01:21:34.415Z,18.15
2022-11-09T01:24:01.897Z,13.80
2022-11-09T01:26:30.364Z,15.05
2022-11-09T01:28:57.800Z,11.38
2022-11-09T01:31:25.977Z,12.07
2022-11-09T01:33:53.911Z,16.55
2022-11-09T01:36:23.406Z,13.35
2022-11-09T01:38:51.731Z,9.75
2022-11-09T01:41:22.391Z,12.60
2022-11-09T01:44:08.615Z,11.13
2022-11-09T01:47:00.969Z,20.40
2022-11-09T01:49:59.541Z,16.63
2022-11-09T01:52:32.133Z,17.35
2022-11-09T01:55:03.607Z,15.52
2022-11-09T01:57:36.607Z,21.10
2022-11-09T02:00:14.239Z,17.50
2022-11-09T02:03:05.221Z,18.08
2022-11-09T02:05:36.189Z,14.95
2022-11-09T02:08:06.547Z,17.15
2022-11-09T02:10:42.566Z,21.15
2022-11-09T02:13:12.113Z,20.92
2022-11-09T02:15:45.267Z,23.63
2022-11-09T02:18:13.356Z,21.90
2022-11-09T02:20:50.509Z,20.75
2022-11-09T02:23:19.376Z,22.05
2022-11-09T02:25:54.791Z,17.63
2022-11-09T02:28:23.872Z,20.63
2022-11-09T02:30:52.982Z,22.00
2022-11-09T02:33:20.933Z,20.27
2022-11-09T02:35:49.362Z,22.80
2022-11-09T02:38:16.852Z,22.58
2022-11-09T02:40:48.169Z,23.35
2022-11-09T02:43:18.477Z,30.15
2022-11-09T02:45:46.505Z,22.08
2022-11-09T02:48:14.797Z,25.13
2022-11-09T02:50:42.307Z,24.17
2022-11-09T02:53:09.820Z,28.83
2022-11-09T02:55:41.788Z,26.95
2022-11-09T02:58:09.754Z,24.63
2022-11-09T03:00:38.097Z,24.63
2022-11-09T03:03:06.423Z,21.65
2022-11-09T03:05:33.927Z,21.90
2022-11-09T03:08:02.612Z,26.63
2022-11-09T03:10:33.429Z,23.17
2022-11-09T03:13:01.934Z,19.10
2022-11-09T03:15:29.865Z,22.08
2022-11-09T03:17:57.279Z,19.05
2022-11-09T03:20:25.421Z,24.85
2022-11-09T03:22:57.695Z,20.48
2022-11-09T03:28:04.968Z,19.13
2022-11-09T03:30:32.630Z,22.25
2022-11-09T03:33:02.364Z,26.90
2022-11-09T03:35:30.146Z,21.35
2022-11-09T03:37:57.634Z,24.25
2022-11-09T03:40:26.036Z,25.98
2022-11-09T03:42:53.522Z,24.20
2022-11-09T03:45:21.122Z,23.33
2022-11-09T03:47:48.613Z,24.02
2022-11-09T03:50:17.668Z,23.17
2022-11-09T03:52:46.456Z,24.30
2022-11-09T03:55:14.943Z,20.13
2022-11-09T03:57:44.102Z,28.70
2022-11-09T04:00:12.721Z,22.75
2022-11-09T04:02:40.546Z,23.90
2022-11-09T04:05:08.734Z,21.30
2022-11-09T04:07:36.427Z,25.98
2022-11-09T04:10:05.095Z,23.77
2022-11-09T04:12:32.489Z,24.67
2022-11-09T04:15:00.163Z,19.85
2022-11-09T04:17:27.622Z,19.77
2022-11-09T04:19:55.109Z,17.55
2022-11-09T04:22:22.549Z,16.65
2022-11-09T04:24:50.175Z,18.48
2022-11-09T04:27:18.510Z,14.98
2022-11-09T04:29:46.036Z,20.50
2022-11-09T04:32:13.529Z,18.77
2022-11-09T04:34:41.491Z,18.83
2022-11-09T04:37:09.790Z,20.17
2022-11-09T04:39:37.193Z,22.33
2022-11-09T04:42:04.658Z,18.95
2022-11-09T04:44:32.070Z,23.08
2022-11-09T04:46:59.440Z,21.75
2022-11-09T04:49:26.887Z,20.33
2022-11-09T04:51:54.665Z,21.08
2022-11-09T04:54:22.229Z,26.90
2022-11-09T04:56:49.633Z,21.30
2022-11-09T04:59:17.392Z,22.25
2022-11-09T05:01:44.854Z,24.73
2022-11-09T05:04:12.537Z,21.90
2022-11-09T05:06:40.224Z,24.52
2022-11-09T05:09:08.438Z,20.90
2022-11-09T05:11:36.516Z,21.42
2022-11-09T05:14:04.157Z,22.23
2022-11-09T05:16:32.065Z,24.77
2022-11-09T05:18:59.637Z,26.00
2022-11-09T05:21:27.711Z,20.52
2022-11-09T05:24:02.521Z,20.13
2022-11-09T05:26:41.124Z,24.58
2022-11-09T05:29:11.345Z,24.95
2022-11-09T05:31:39.837Z,21.85
2022-11-09T05:34:08.082Z,22.92
2022-11-09T05:36:35.506Z,20.23
2022-11-09T05:39:03.455Z,20.80
2022-11-09T05:41:30.899Z,24.98
2022-11-09T05:43:58.251Z,21.52
2022-11-09T05:46:26.340Z,24.00
2022-11-09T05:48:53.795Z,25.95
2022-11-09T05:51:21.250Z,25.90
2022-11-09T05:53:48.750Z,24.45
2022-11-09T05:56:16.161Z,25.17
2022-11-09T05:58:43.560Z,26.42
2022-11-09T06:01:14.349Z,24.02
2022-11-09T06:03:44.335Z,28.75
2022-11-09T06:06:14.023Z,24.65
2022-11-09T06:08:42.441Z,23.48
2022-11-09T06:11:12.014Z,22.90
2022-11-09T06:13:39.477Z,25.30
2022-11-09T06:16:07.387Z,21.08
2022-11-09T06:18:36.565Z,26.17
2022-11-09T06:21:05.478Z,25.42
2022-11-09T06:23:33.391Z,23.38
2022-11-09T06:26:03.713Z,20.75
2022-11-09T06:28:31.718Z,23.10
2022-11-09T06:31:00.480Z,24.63
2022-11-09T06:33:30.289Z,23.77
2022-11-09T06:35:58.557Z,29.92
2022-11-09T06:38:29.235Z,31.77
2022-11-09T06:40:59.365Z,26.45
2022-11-09T06:43:27.928Z,29.42
2022-11-09T06:45:55.598Z,26.48
2022-11-09T06:48:23.615Z,31.98
2022-11-09T06:50:51.095Z,32.25
2022-11-09T06:53:18.840Z,30.80
2022-11-09T06:55:50.543Z,36.65
2022-11-09T06:58:19.823Z,27.88
2022-11-09T07:00:47.553Z,34.38
2022-11-09T07:03:16.424Z,41.10
2022-11-09T07:05:44.648Z,33.38
2022-11-09T07:08:12.949Z,35.95
2022-11-09T07:10:40.742Z,33.63
2022-11-09T07:13:08.848Z,36.90
2022-11-09T07:15:37.759Z,36.20
2022-11-09T07:18:08.229Z,33.35
2022-11-09T07:20:35.638Z,33.58
2022-11-09T07:23:03.119Z,37.58
2022-11-09T07:25:30.626Z,39.33
2022-11-09T07:28:04.047Z,34.70
2022-11-09T07:30:31.683Z,34.30
2022-11-09T07:33:09.117Z,35.08
2022-11-09T07:35:37.965Z,39.90
2022-11-09T07:38:05.510Z,39.78
2022-11-09T07:40:33.303Z,38.78
2022-11-09T07:43:01.782Z,39.70
2022-11-09T07:45:30.044Z,45.90
2022-11-09T07:47:59.027Z,42.40
2022-11-09T07:50:27.529Z,44.92
2022-11-09T07:52:56.768Z,41.83
2022-11-09T07:55:25.326Z,47.10
2022-11-09T07:58:00.314Z,45.03
2022-11-09T08:00:30.187Z,44.00
2022-11-09T08:02:57.684Z,49.92
2022-11-09T08:05:25.932Z,49.78
2022-11-09T08:07:57.987Z,46.13
2022-11-09T08:10:26.988Z,46.55
2022-11-09T08:13:14.601Z,46.13
2022-11-09T08:15:42.536Z,43.45
2022-11-09T08:18:21.923Z,47.78
2022-11-09T08:20:50.215Z,53.85
2022-11-09T08:23:20.840Z,56.28
2022-11-09T08:25:50.380Z,55.10
2022-11-09T08:28:18.974Z,53.17
2022-11-09T08:30:54.462Z,58.75
2022-11-09T08:33:21.864Z,53.55
2022-11-09T08:35:53.226Z,53.28
2022-11-09T08:38:21.209Z,58.47
2022-11-09T08:40:48.759Z,51.47
2022-11-09T08:43:16.185Z,51.03
2022-11-09T08:45:43.730Z,53.67
2022-11-09T08:48:12.563Z,50.17
2022-11-09T08:50:40.116Z,51.28
2022-11-09T08:53:08.214Z,55.05
2022-11-09T08:55:35.646Z,51.45
2022-11-09T08:58:04.313Z,51.03
2022-11-09T09:00:32.111Z,51.33
2022-11-09T09:03:03.142Z,54.58
2022-11-09T09:05:30.595Z,56.15
2022-11-09T09:07:59.935Z,55.85
2022-11-09T09:10:27.631Z,53.95
2022-11-09T09:12:55.606Z,58.10
2022-11-09T09:15:23.619Z,54.38
2022-11-09T09:17:51.067Z,61.50
2022-11-09T09:20:18.527Z,57.47
2022-11-09T09:22:46.205Z,65.97
2022-11-09T09:25:13.848Z,70.05
2022-11-09T09:27:43.324Z,54.40
2022-11-09T09:30:11.432Z,56.78
2022-11-09T09:32:38.861Z,53.30
2022-11-09T09:35:06.687Z,55.25
2022-11-09T09:37:34.057Z,57.53
2022-11-09T09:40:01.363Z,60.05
2022-11-09T09:42:36.180Z,58.13
2022-11-09T09:45:18.116Z,58.03
2022-11-09T09:48:03.933Z,58.55
2022-11-09T09:50:53.551Z,59.38
2022-11-09T09:53:32.481Z,64.25
2022-11-09T09:56:05.271Z,59.50
2022-11-09T09:58:35.041Z,65.15
2022-11-09T10:01:12.715Z,64.25
2022-11-09T10:03:40.160Z,62.20
2022-11-09T10:06:25.605Z,66.15
2022-11-09T10:09:08.393Z,67.55
2022-11-09T10:11:35.764Z,66.75
2022-11-09T10:14:21.532Z,64.90
2022-11-09T10:17:16.470Z,69.93
2022-11-09T10:19:46.836Z,63.35
2022-11-09T10:23:03.088Z,69.30
2022-11-09T10:25:57.644Z,66.47
2022-11-09T10:28:26.771Z,62.17
2022-11-09T10:30:54.373Z,68.40
2022-11-09T10:33:22.912Z,69.60
2022-11-09T10:36:31.024Z,67.93
2022-11-09T10:39:01.359Z,66.07
2022-11-09T10:41:47.524Z,65.85
2022-11-09T10:44:33.352Z,65.45
2022-11-09T10:47:19.672Z,63.85
2022-11-09T10:50:14.629Z,62.83
2022-11-09T10:53:16.031Z,65.70
2022-11-09T10:56:21.743Z,67.30
2022-11-09T10:59:45.493Z,69.90
2022-11-09T11:02:31.209Z,69.43
2022-11-09T11:05:17.131Z,71.22
2022-11-09T11:08:24.975Z,68.88
2022-11-09T11:11:37.596Z,62.72
2022-11-09T11:14:34.260Z,65.97
2022-11-09T11:17:42.611Z,63.53
2022-11-09T11:20:34.802Z,59.63
2022-11-09T11:23:23.440Z,63.00
2022-11-09T11:26:30.421Z,63.90
2022-11-09T11:29:19.531Z,60.30
2022-11-09T11:32:14.751Z,59.40
2022-11-09T11:35:01.835Z,59.78
2022-11-09T11:38:01.871Z,61.95
2022-11-09T11:40:59.819Z,55.17
2022-11-09T11:43:53.458Z,61.30
2022-11-09T11:46:48.848Z,61.63
2022-11-09T11:49:52.687Z,60.47
2022-11-09T11:53:13.348Z,60.38
2022-11-09T11:56:17.984Z,58.53
2022-11-09T11:59:18.745Z,60.50
2022-11-09T12:02:28.160Z,57.15
2022-11-09T12:05:47.632Z,63.00
2022-11-09T12:08:39.436Z,64.63
2022-11-09T12:11:49.499Z,70.72
2022-11-09T12:14:47.069Z,70.32
2022-11-09T12:18:07.702Z,64.35
2022-11-09T12:20:58.746Z,64.88
2022-11-09T12:24:26.449Z,67.13
2022-11-09T12:27:32.973Z,64.00
2022-11-09T12:30:26.003Z,65.72
2022-11-09T12:33:32.316Z,60.15
2022-11-09T12:37:02.663Z,112.22
2022-11-09T12:39:54.472Z,93.28
2022-11-09T12:42:45.293Z,69.97
2022-11-09T12:45:37.915Z,69.65
2022-11-09T12:48:32.645Z,71.85
2022-11-09T12:51:19.293Z,67.90
2022-11-09T12:54:11.291Z,70.57
2022-11-09T12:57:04.562Z,72.90
2022-11-09T12:59:56.121Z,74.45
2022-11-09T13:03:01.425Z,83.15
2022-11-09T13:05:49.634Z,71.18
2022-11-09T13:08:36.558Z,57.28
2022-11-09T13:11:29.826Z,68.72
2022-11-09T13:14:30.525Z,60.70
2022-11-09T13:17:28.550Z,65.28
2022-11-09T13:26:48.997Z,62.00
2022-11-09T13:29:40.790Z,59.75
2022-11-09T13:32:33.477Z,70.88
2022-11-09T13:35:59.314Z,57.20
2022-11-09T13:38:45.409Z,49.20
2022-11-09T13:41:32.029Z,50.55
2022-11-09T13:44:27.411Z,48.33
2022-11-09T13:47:32.902Z,45.88
2022-11-09T13:50:22.662Z,44.05
2022-11-09T13:53:37.636Z,47.70
2022-11-09T13:56:41.130Z,51.35
2022-11-09T13:59:33.745Z,47.65
2022-11-09T14:02:23.626Z,45.38
2022-11-09T14:05:26.263Z,50.80
2022-11-09T14:11:33.454Z,52.50
2022-11-09T14:14:46.817Z,53.47
2022-11-09T14:17:41.710Z,53.00
2022-11-09T14:20:34.835Z,52.65
2022-11-09T14:23:23.468Z,53.78
2022-11-09T14:26:16.923Z,52.75
2022-11-09T14:29:21.980Z,48.63
2022-11-09T14:32:26.685Z,51.03
2022-11-09T14:35:32.632Z,52.85
2022-11-09T14:38:38.613Z,55.70
2022-11-09T14:41:27.264Z,48.28
2022-11-09T14:44:40.421Z,52.45
2022-11-09T14:50:37.458Z,54.25
2022-11-09T14:53:29.029Z,47.47
2022-11-09T14:56:18.438Z,48.13
2022-11-09T14:59:16.859Z,48.28
2022-11-09T15:02:17.609Z,44.08
2022-11-09T15:05:06.282Z,47.97
2022-11-09T15:07:52.624Z,54.03
2022-11-09T15:10:38.477Z,48.75
2022-11-09T15:13:34.852Z,45.35
2022-11-09T15:16:29.306Z,51.03
2022-11-09T15:19:28.539Z,48.22
2022-11-09T15:22:50.379Z,43.00
2022-11-09T15:25:54.442Z,47.40
2022-11-09T15:28:47.251Z,43.78
2022-11-09T15:31:33.268Z,41.42
2022-11-09T15:34:23.806Z,42.95
2022-11-09T15:37:28.354Z,43.75
2022-11-09T15:40:20.240Z,48.05
2022-11-09T15:43:06.094Z,44.25
2022-11-09T15:45:52.131Z,42.47
2022-11-09T15:48:42.048Z,43.70
2022-11-09T15:51:30.334Z,36.72
2022-11-09T15:54:16.899Z,40.53
2022-11-09T15:57:02.737Z,43.22
2022-11-09T15:59:50.464Z,39.13
2022-11-09T16:02:36.311Z,32.47
2022-11-09T16:05:23.290Z,28.70
2022-11-09T16:08:09.530Z,28.80
2022-11-09T16:10:55.492Z,28.38
2022-11-09T16:13:41.499Z,25.40
2022-11-09T16:16:28.144Z,25.02
2022-11-09T16:19:15.268Z,26.45
2022-11-09T16:22:02.760Z,30.13
2022-11-09T16:24:48.684Z,27.88
2022-11-09T16:27:49.592Z,31.17
2022-11-09T16:30:36.662Z,30.67
2022-11-09T16:33:22.591Z,24.90
2022-11-09T16:36:13.910Z,32.38
2022-11-09T16:39:09.294Z,29.98
2022-11-09T16:41:55.332Z,24.45
2022-11-09T16:44:43.975Z,26.52
2022-11-09T16:47:29.705Z,27.52
2022-11-09T16:50:15.949Z,27.33
2022-11-09T16:53:01.654Z,26.67
2022-11-09T16:55:47.571Z,24.83
2022-11-09T16:58:33.644Z,30.83
2022-11-09T17:01:23.605Z,25.25
2022-11-09T17:04:09.972Z,25.25
2022-11-09T17:06:55.934Z,25.48
2022-11-09T17:09:42.095Z,25.98
2022-11-09T17:12:30.395Z,22.77
2022-11-09T17:15:17.119Z,30.48
2022-11-09T17:18:03.103Z,28.98
2022-11-09T17:20:50.647Z,29.63
2022-11-09T17:23:37.383Z,28.63
2022-11-09T17:26:23.928Z,32.47
2022-11-09T17:29:09.938Z,32.75
2022-11-09T17:31:55.769Z,31.60
2022-11-09T17:34:41.498Z,29.63
2022-11-09T17:37:28.910Z,31.73
2022-11-09T17:40:17.239Z,30.70
2022-11-09T17:43:04.017Z,33.53
2022-11-09T17:45:50.057Z,37.45
2022-11-09T17:48:37.838Z,33.47
2022-11-09T17:51:25.182Z,33.83
2022-11-09T17:54:11.173Z,33.85
2022-11-09T17:56:57.342Z,34.85
2022-11-09T17:59:43.119Z,31.13
2022-11-09T18:02:28.917Z,36.05
2022-11-09T18:05:16.476Z,33.60
2022-11-09T18:08:02.346Z,38.00
2022-11-09T18:10:50.898Z,37.22
2022-11-09T18:13:37.102Z,35.08
2022-11-09T18:16:23.498Z,35.78
2022-11-09T18:19:09.328Z,36.78
2022-11-09T18:21:55.275Z,31.38
2022-11-09T18:24:41.310Z,34.10
2022-11-09T18:27:30.307Z,27.35
2022-11-09T18:30:17.022Z,35.88
2022-11-09T18:33:03.164Z,34.75
2022-11-09T18:36:07.963Z,35.80
2022-11-09T18:38:58.484Z,36.50
2022-11-09T18:41:44.849Z,30.52
2022-11-09T18:44:30.769Z,30.27
2022-11-09T18:47:16.448Z,33.85
2022-11-09T18:50:02.560Z,31.50
2022-11-09T18:52:48.124Z,28.50
2022-11-09T18:55:34.310Z,32.22
2022-11-09T18:58:20.336Z,34.58
2022-11-09T19:01:07.829Z,33.70
2022-11-09T19:03:59.033Z,34.55
2022-11-09T19:06:45.404Z,34.53
2022-11-09T19:09:35.468Z,38.05
2022-11-09T19:12:21.551Z,35.05
2022-11-09T19:15:08.793Z,39.08
2022-11-09T19:17:54.839Z,39.33
2022-11-09T19:20:40.878Z,40.63
2022-11-09T19:23:33.910Z,35.25
2022-11-09T19:26:21.881Z,38.53
2022-11-09T19:29:09.101Z,38.75
2022-11-09T19:31:55.089Z,38.75
2022-11-09T19:34:42.774Z,41.30
2022-11-09T19:37:29.059Z,43.53
2022-11-09T19:40:15.669Z,36.15
2022-11-09T19:43:01.301Z,32.63
2022-11-09T19:45:47.218Z,34.10
2022-11-09T19:48:37.336Z,31.40
2022-11-09T19:51:24.023Z,34.10
2022-11-09T19:54:11.924Z,34.45
2022-11-09T19:56:57.553Z,36.78
2022-11-09T19:59:43.534Z,40.83
2022-11-09T20:02:29.503Z,37.33
2022-11-09T20:05:15.575Z,31.38
2022-11-09T20:08:05.309Z,36.00
2022-11-09T20:10:52.359Z,34.50
2022-11-09T20:13:40.390Z,36.17
2022-11-09T20:16:26.642Z,39.67
2022-11-09T20:19:13.538Z,41.53
2022-11-09T20:22:00.164Z,36.92
2022-11-09T20:24:46.177Z,35.58
2022-11-09T20:27:32.678Z,42.28
2022-11-09T20:30:18.569Z,40.25
2022-11-09T20:33:04.647Z,42.47
2022-11-09T20:35:56.871Z,38.22
2022-11-09T20:38:42.809Z,33.95
2022-11-09T20:41:28.810Z,36.22
2022-11-09T20:44:14.686Z,38.97
2022-11-09T20:47:00.431Z,41.47
2022-11-09T20:49:47.359Z,39.55
2022-11-09T20:52:33.408Z,39.03
2022-11-09T20:55:19.116Z,36.33
2022-11-09T20:58:06.028Z,47.20
2022-11-09T21:01:11.625Z,36.42
2022-11-09T21:03:57.324Z,41.60
2022-11-09T21:06:43.304Z,42.38
2022-11-09T21:09:29.143Z,42.58
2022-11-09T21:12:24.969Z,40.15
2022-11-09T21:15:11.510Z,41.88
2022-11-09T21:17:57.472Z,47.78
2022-11-09T21:20:43.912Z,43.10
2022-11-09T21:23:48.211Z,46.47
2022-11-09T21:26:53.131Z,48.80
2022-11-09T21:29:57.182Z,53.15
2022-11-09T21:32:42.940Z,48.67
2022-11-09T21:35:28.799Z,46.53
2022-11-09T21:38:14.721Z,48.92
2022-11-09T21:41:21.743Z,46.47
2022-11-09T21:44:09.193Z,47.10
2022-11-09T21:46:55.121Z,51.45
2022-11-09T21:49:41.065Z,47.17
2022-11-09T21:52:26.883Z,49.50
2022-11-09T21:55:12.940Z,54.10
2022-11-09T21:57:59.211Z,53.53
2022-11-09T22:00:45.134Z,52.58
2022-11-09T22:03:31.171Z,59.70
2022-11-09T22:06:17.347Z,55.97
2022-11-09T22:09:03.744Z,58.85
2022-11-09T22:12:07.940Z,59.33
2022-11-09T22:15:12.551Z,57.33
2022-11-09T22:17:58.366Z,59.55
2022-11-09T22:20:56.283Z,63.15
2022-11-09T22:23:42.105Z,54.22
2022-11-09T22:26:29.642Z,53.60
2022-11-09T22:29:15.319Z,57.20
2022-11-09T22:32:01.547Z,52.85
2022-11-09T22:34:47.338Z,55.42
2022-11-09T22:37:33.014Z,51.70
2022-11-09T22:40:19.009Z,47.20
2022-11-09T22:43:04.800Z,49.80
2022-11-09T22:45:50.674Z,49.20
2022-11-09T22:48:37.886Z,48.05
2022-11-09T22:51:23.895Z,46.72
2022-11-09T22:54:09.622Z,40.45
2022-11-09T22:56:55.444Z,46.00
2022-11-09T22:59:41.814Z,44.25
2022-11-09T23:02:28.888Z,42.03
2022-11-09T23:05:15.242Z,41.42
2022-11-09T23:08:01.015Z,41.47
2022-11-09T23:10:54.980Z,40.42
2022-11-09T23:13:41.167Z,41.08
2022-11-09T23:16:27.154Z,39.67
2022-11-09T23:19:12.853Z,42.72
2022-11-09T23:21:58.739Z,44.60
2022-11-09T23:25:03.229Z,38.70
2022-11-09T23:27:52.722Z,39.95
2022-11-09T23:30:39.072Z,41.80
2022-11-09T23:33:25.180Z,41.72
2022-11-09T23:36:11.439Z,42.53
2022-11-09T23:38:57.235Z,38.28
2022-11-09T23:41:43.149Z,39.53
2022-11-09T23:44:29.096Z,37.22
2022-11-09T23:47:14.950Z,40.90
2022-11-09T23:50:00.782Z,35.67
2022-11-09T23:52:46.491Z,38.30
2022-11-09T23:55:32.515Z,38.38
2022-11-09T23:58:18.913Z,35.08
